createdAt,value
2019-04-14T00:00:31.496Z,26.80
2019-04-14T00:03:10.644Z,25.00
2019-04-14T00:05:42.922Z,26.52
2019-04-14T00:08:13.355Z,30.43
2019-04-14T00:10:42.788Z,29.40
2019-04-14T00:13:13.130Z,28.47
2019-04-14T00:15:47.041Z,26.40
2019-04-14T00:18:14.273Z,29.50
2019-04-14T00:20:46.948Z,31.77
2019-04-14T00:23:19.267Z,27.50
2019-04-14T00:28:18.481Z,29.30
2019-04-14T00:30:49.037Z,26.62
2019-04-14T00:33:21.320Z,28.73
2019-04-14T00:36:02.244Z,28.80
2019-04-14T00:38:36.878Z,37.88
2019-04-14T00:41:09.318Z,33.87
2019-04-14T00:43:54.849Z,33.02
2019-04-14T00:46:35.726Z,32.60
2019-04-14T00:49:06.940Z,30.55
2019-04-14T00:51:38.355Z,31.90
2019-04-14T00:54:08.737Z,34.73
2019-04-14T00:56:39.006Z,30.90
2019-04-14T00:59:09.270Z,32.37
2019-04-14T01:01:39.459Z,30.83
2019-04-14T01:04:09.787Z,41.67
2019-04-14T01:06:40.383Z,32.20
2019-04-14T01:09:12.840Z,32.63
2019-04-14T01:11:42.394Z,34.78
2019-04-14T01:14:12.631Z,35.60
2019-04-14T01:16:43.003Z,33.73
2019-04-14T01:19:13.382Z,35.63
2019-04-14T01:21:43.598Z,36.63
2019-04-14T01:24:14.144Z,35.20
2019-04-14T01:26:44.243Z,33.80
2019-04-14T01:29:14.370Z,37.50
2019-04-14T01:31:51.442Z,38.63
2019-04-14T01:34:21.669Z,37.70
2019-04-14T01:36:56.132Z,37.20
2019-04-14T01:39:26.510Z,34.10
2019-04-14T01:41:56.428Z,37.00
2019-04-14T01:44:26.403Z,35.77
2019-04-14T01:46:56.571Z,38.67
2019-04-14T01:49:26.904Z,36.00
2019-04-14T01:52:01.390Z,38.40
2019-04-14T01:54:51.370Z,36.70
2019-04-14T01:57:22.679Z,45.27
2019-04-14T01:59:52.564Z,37.33
2019-04-14T02:02:25.254Z,39.10
2019-04-14T02:04:55.322Z,41.33
2019-04-14T02:07:25.577Z,39.30
2019-04-14T02:09:55.348Z,38.93
2019-04-14T02:12:25.655Z,33.87
2019-04-14T02:15:00.439Z,37.90
2019-04-14T02:17:30.707Z,34.70
2019-04-14T02:20:01.208Z,36.00
2019-04-14T02:22:31.267Z,38.23
2019-04-14T02:25:01.437Z,42.57
2019-04-14T02:27:31.758Z,37.60
2019-04-14T02:30:03.610Z,44.47
2019-04-14T02:32:57.366Z,39.57
2019-04-14T02:38:13.806Z,39.45
2019-04-14T02:40:36.452Z,41.03
2019-04-14T02:43:04.347Z,38.40
2019-04-14T02:45:52.142Z,46.13
2019-04-14T02:48:22.370Z,44.27
2019-04-14T02:55:44.843Z,46.55
2019-04-14T02:58:09.957Z,42.57
2019-04-14T03:00:41.845Z,41.50
2019-04-14T03:03:25.700Z,41.17
2019-04-14T03:05:55.154Z,49.10
2019-04-14T03:08:25.903Z,51.43
2019-04-14T03:10:49.778Z,42.93
2019-04-14T03:13:21.057Z,45.57
2019-04-14T03:18:38.131Z,50.87
2019-04-14T03:21:19.722Z,43.60
2019-04-14T03:24:03.588Z,42.13
2019-04-14T03:26:41.893Z,38.67
2019-04-14T03:29:19.556Z,41.00
2019-04-14T03:32:00.187Z,44.20
2019-04-14T03:34:34.575Z,45.40
2019-04-14T03:39:24.876Z,42.03
2019-04-14T03:41:54.755Z,41.10
2019-04-14T03:44:33.100Z,40.43
2019-04-14T03:47:03.106Z,42.30
2019-04-14T03:49:31.370Z,44.87
2019-04-14T03:51:57.960Z,45.83
2019-04-14T03:54:28.929Z,42.47
2019-04-14T03:56:46.626Z,42.47
2019-04-14T03:59:17.655Z,38.03
2019-04-14T04:01:47.900Z,44.57
2019-04-14T04:04:18.378Z,45.60
2019-04-14T04:06:48.587Z,46.27
2019-04-14T04:09:19.288Z,38.17
2019-04-14T04:11:50.331Z,40.73
2019-04-14T04:14:20.334Z,40.90
2019-04-14T04:16:52.919Z,42.23
2019-04-14T04:19:25.053Z,44.83
2019-04-14T04:21:55.235Z,37.70
2019-04-14T04:24:39.107Z,39.07
2019-04-14T04:27:26.605Z,39.67
2019-04-14T04:30:12.996Z,40.03
2019-04-14T04:32:44.781Z,39.63
2019-04-14T04:35:19.652Z,41.92
2019-04-14T04:37:51.932Z,42.63
2019-04-14T04:40:26.755Z,42.63
2019-04-14T04:42:56.956Z,46.10
2019-04-14T04:45:26.369Z,36.87
2019-04-14T04:47:55.756Z,43.48
2019-04-14T04:50:26.019Z,43.43
2019-04-14T04:52:56.191Z,40.17
2019-04-14T04:55:26.287Z,41.20
2019-04-14T04:57:56.631Z,48.73
2019-04-14T05:00:26.663Z,38.67
2019-04-14T05:02:57.139Z,44.67
2019-04-14T05:06:11.311Z,45.40
2019-04-14T05:08:43.441Z,45.53
2019-04-14T05:11:12.651Z,42.58
2019-04-14T05:13:44.611Z,44.07
2019-04-14T05:16:14.916Z,39.67
2019-04-14T05:18:44.251Z,38.43
2019-04-14T05:21:14.828Z,41.50
2019-04-14T05:23:45.270Z,40.43
2019-04-14T05:26:15.576Z,40.60
2019-04-14T05:28:46.015Z,43.93
2019-04-14T05:31:16.482Z,43.07
2019-04-14T05:33:46.895Z,42.57
2019-04-14T05:36:17.108Z,43.68
2019-04-14T05:38:47.428Z,44.18
2019-04-14T05:41:17.992Z,41.23
2019-04-14T05:43:53.738Z,40.52
2019-04-14T05:46:18.605Z,41.92
2019-04-14T05:48:49.162Z,43.35
2019-04-14T05:51:21.346Z,46.03
2019-04-14T05:53:50.178Z,43.40
2019-04-14T05:56:20.700Z,42.95
2019-04-14T05:58:51.429Z,43.65
2019-04-14T06:01:21.111Z,46.25
2019-04-14T06:03:51.717Z,43.98
2019-04-14T06:06:21.296Z,38.60
2019-04-14T06:08:50.635Z,44.80
2019-04-14T06:11:19.981Z,43.35
2019-04-14T06:13:49.337Z,44.13
2019-04-14T06:16:18.759Z,39.48
2019-04-14T06:18:48.125Z,44.77
2019-04-14T06:21:17.533Z,48.50
2019-04-14T06:23:46.882Z,45.75
2019-04-14T06:26:16.262Z,44.45
2019-04-14T06:28:45.606Z,40.55
2019-04-14T06:31:17.318Z,42.33
2019-04-14T06:33:51.039Z,39.30
2019-04-14T06:36:22.033Z,46.20
2019-04-14T06:38:53.112Z,42.20
2019-04-14T06:41:22.510Z,50.70
2019-04-14T06:43:51.923Z,43.02
2019-04-14T06:46:21.248Z,50.92
2019-04-14T06:48:50.601Z,51.60
2019-04-14T06:51:19.988Z,40.65
2019-04-14T06:53:49.328Z,44.67
2019-04-14T06:56:18.690Z,46.00
2019-04-14T06:58:48.106Z,45.65
2019-04-14T07:01:17.491Z,36.75
2019-04-14T07:03:46.846Z,42.67
2019-04-14T07:06:16.336Z,48.95
2019-04-14T07:08:45.689Z,42.83
2019-04-14T07:11:15.020Z,42.25
2019-04-14T07:13:47.835Z,40.15
2019-04-14T07:16:15.461Z,42.75
2019-04-14T07:18:44.788Z,40.08
2019-04-14T07:21:14.151Z,46.65
2019-04-14T07:23:43.486Z,43.75
2019-04-14T07:26:12.877Z,42.60
2019-04-14T07:28:42.220Z,40.83
2019-04-14T07:31:28.476Z,47.62
2019-04-14T07:34:11.763Z,44.42
2019-04-14T07:36:59.145Z,44.00
2019-04-14T07:39:33.126Z,47.05
2019-04-14T07:42:05.478Z,44.25
2019-04-14T07:47:21.144Z,45.75
2019-04-14T07:49:50.251Z,46.77
2019-04-14T07:52:39.518Z,48.40
2019-04-14T07:55:10.491Z,43.10
2019-04-14T07:57:57.797Z,56.18
2019-04-14T08:00:33.069Z,44.93
2019-04-14T08:03:04.120Z,44.95
2019-04-14T08:05:41.069Z,44.83
2019-04-14T08:08:10.447Z,44.03
2019-04-14T08:10:40.855Z,44.03
2019-04-14T08:13:10.208Z,44.67
2019-04-14T08:15:39.574Z,42.65
2019-04-14T08:18:08.909Z,48.38
2019-04-14T08:20:38.371Z,47.88
2019-04-14T08:23:07.716Z,41.35
2019-04-14T08:25:37.071Z,43.13
2019-04-14T08:28:06.418Z,43.52
2019-04-14T08:30:35.941Z,46.65
2019-04-14T08:33:05.297Z,43.42
2019-04-14T08:35:34.635Z,58.80
2019-04-14T08:38:04.375Z,47.90
2019-04-14T08:40:33.710Z,43.45
2019-04-14T08:43:05.694Z,43.13
2019-04-14T08:45:36.680Z,40.83
2019-04-14T08:48:11.683Z,39.98
2019-04-14T08:50:48.426Z,40.08
2019-04-14T08:53:25.200Z,36.83
2019-04-14T08:55:56.188Z,39.63
2019-04-14T08:58:27.219Z,42.98
2019-04-14T09:01:05.610Z,43.52
2019-04-14T09:03:34.731Z,36.68
2019-04-14T09:06:05.729Z,41.25
2019-04-14T09:08:36.699Z,57.13
2019-04-14T09:11:13.856Z,50.65
2019-04-14T09:13:43.187Z,41.10
2019-04-14T09:16:12.563Z,37.20
2019-04-14T09:18:41.902Z,39.48
2019-04-14T09:21:11.238Z,43.33
2019-04-14T09:23:40.596Z,38.58
2019-04-14T09:26:10.001Z,51.75
2019-04-14T09:28:39.379Z,37.08
2019-04-14T09:31:08.773Z,50.38
2019-04-14T09:33:38.155Z,39.65
2019-04-14T09:36:10.203Z,34.27
2019-04-14T09:38:39.604Z,35.30
2019-04-14T09:41:09.070Z,44.88
2019-04-14T09:43:38.411Z,37.75
2019-04-14T09:46:07.763Z,36.58
2019-04-14T09:48:37.098Z,40.20
2019-04-14T09:51:06.463Z,37.93
2019-04-14T09:53:36.076Z,36.80
2019-04-14T09:56:05.462Z,36.58
2019-04-14T09:58:34.817Z,37.03
2019-04-14T10:01:04.225Z,32.28
2019-04-14T10:03:35.569Z,36.20
2019-04-14T10:06:04.635Z,50.58
2019-04-14T10:08:34.182Z,42.20
2019-04-14T10:11:03.607Z,33.28
2019-04-14T10:13:32.939Z,34.50
2019-04-14T10:16:02.331Z,45.10
2019-04-14T10:18:31.669Z,32.55
2019-04-14T10:21:01.030Z,33.90
2019-04-14T10:23:30.446Z,32.42
2019-04-14T10:25:59.821Z,31.05
2019-04-14T10:28:29.376Z,30.23
2019-04-14T10:30:58.727Z,30.85
2019-04-14T10:33:28.079Z,30.32
2019-04-14T10:35:57.492Z,29.10
2019-04-14T10:38:26.926Z,32.90
2019-04-14T10:40:56.257Z,39.20
2019-04-14T10:43:25.866Z,41.13
2019-04-14T10:45:55.196Z,29.95
2019-04-14T10:48:24.543Z,34.70
2019-04-14T10:50:53.999Z,40.23
2019-04-14T10:53:23.338Z,32.90
2019-04-14T10:55:52.958Z,29.05
2019-04-14T10:58:22.294Z,29.65
2019-04-14T11:00:53.027Z,27.75
2019-04-14T11:03:22.378Z,34.00
2019-04-14T11:05:53.357Z,30.82
2019-04-14T11:08:22.724Z,36.80
2019-04-14T11:10:52.056Z,29.30
2019-04-14T11:13:21.420Z,30.25
2019-04-14T11:15:50.776Z,31.07
2019-04-14T11:18:20.156Z,35.52
2019-04-14T11:20:49.498Z,31.62
2019-04-14T11:23:18.955Z,29.30
2019-04-14T11:25:48.306Z,29.70
2019-04-14T11:28:17.646Z,30.12
2019-04-14T11:30:47.160Z,32.70
2019-04-14T11:33:22.319Z,33.88
2019-04-14T11:36:02.063Z,30.50
2019-04-14T11:38:33.057Z,32.38
2019-04-14T11:41:04.165Z,31.25
2019-04-14T11:43:33.515Z,29.80
2019-04-14T11:46:03.715Z,34.03
2019-04-14T11:48:33.569Z,31.35
2019-04-14T11:51:02.914Z,31.80
2019-04-14T11:53:32.273Z,44.00
2019-04-14T11:56:01.619Z,46.05
2019-04-14T11:58:30.980Z,41.23
2019-04-14T12:01:12.432Z,35.90
2019-04-14T12:03:49.413Z,30.87
2019-04-14T12:06:36.706Z,30.50
2019-04-14T12:09:21.189Z,31.00
2019-04-14T12:11:50.583Z,34.90
2019-04-14T12:14:19.974Z,38.05
2019-04-14T12:16:49.277Z,34.73
2019-04-14T12:19:18.720Z,34.70
2019-04-14T12:21:48.187Z,35.98
2019-04-14T12:24:17.528Z,57.27
2019-04-14T12:26:46.899Z,33.45
2019-04-14T12:29:16.795Z,31.42
2019-04-14T12:31:46.565Z,35.20
2019-04-14T12:34:18.317Z,44.98
2019-04-14T12:36:47.210Z,37.67
2019-04-14T12:39:20.684Z,36.20
2019-04-14T12:41:51.675Z,32.58
2019-04-14T12:44:20.920Z,36.85
2019-04-14T12:47:08.282Z,48.68
2019-04-14T12:49:39.440Z,40.75
2019-04-14T12:52:21.319Z,37.50
2019-04-14T12:54:47.425Z,35.73
2019-04-14T12:57:18.407Z,32.35
2019-04-14T12:59:47.823Z,35.43
2019-04-14T13:02:18.808Z,32.58
2019-04-14T13:04:48.131Z,41.70
2019-04-14T13:07:17.577Z,36.98
2019-04-14T13:09:46.922Z,33.33
2019-04-14T13:12:16.387Z,34.83
2019-04-14T13:14:45.733Z,35.52
2019-04-14T13:17:15.068Z,33.78
2019-04-14T13:19:44.418Z,30.60
2019-04-14T13:22:13.818Z,43.00
2019-04-14T13:24:43.192Z,36.68
2019-04-14T13:27:12.602Z,39.03
2019-04-14T13:29:42.058Z,35.10
2019-04-14T13:32:11.432Z,33.75
2019-04-14T13:34:40.934Z,40.17
2019-04-14T13:37:10.311Z,36.73
2019-04-14T13:39:39.677Z,49.58
2019-04-14T13:42:09.018Z,41.65
2019-04-14T13:44:38.401Z,37.30
2019-04-14T13:47:07.831Z,39.20
2019-04-14T13:49:37.225Z,37.20
2019-04-14T13:52:06.564Z,48.30
2019-04-14T13:54:35.956Z,42.13
2019-04-14T13:57:05.416Z,38.17
2019-04-14T13:59:34.751Z,41.25
2019-04-14T14:02:04.173Z,33.28
2019-04-14T14:04:33.521Z,39.73
2019-04-14T14:07:02.855Z,39.53
2019-04-14T14:09:32.287Z,37.70
2019-04-14T14:12:03.365Z,37.17
2019-04-14T14:14:43.332Z,31.17
2019-04-14T14:17:14.325Z,35.03
2019-04-14T14:19:57.780Z,31.68
2019-04-14T14:22:37.432Z,36.77
2019-04-14T14:25:14.479Z,44.20
2019-04-14T14:27:43.801Z,40.83
2019-04-14T14:30:14.833Z,36.75
2019-04-14T14:32:44.197Z,34.40
2019-04-14T14:35:13.533Z,59.15
2019-04-14T14:37:43.039Z,68.30
2019-04-14T14:40:12.496Z,53.83
2019-04-14T14:42:41.869Z,36.70
2019-04-14T14:45:14.603Z,43.68
2019-04-14T14:47:45.591Z,32.67
2019-04-14T14:50:28.638Z,38.63
2019-04-14T14:52:58.081Z,35.23
2019-04-14T14:55:27.420Z,42.23
2019-04-14T14:57:56.783Z,40.08
2019-04-14T15:00:27.811Z,33.80
2019-04-14T15:02:57.210Z,34.95
2019-04-14T15:05:26.572Z,35.38
2019-04-14T15:07:55.921Z,30.23
2019-04-14T15:10:25.267Z,39.13
2019-04-14T15:12:54.669Z,29.77
2019-04-14T15:15:24.008Z,32.55
2019-04-14T15:17:53.364Z,28.45
2019-04-14T15:20:22.705Z,67.92
2019-04-14T15:22:52.430Z,44.27
2019-04-14T15:25:22.978Z,35.28
2019-04-14T15:27:52.320Z,47.85
2019-04-14T15:30:23.344Z,35.98
2019-04-14T15:32:52.653Z,31.30
2019-04-14T15:35:21.990Z,33.70
2019-04-14T15:37:51.367Z,37.50
2019-04-14T15:40:20.719Z,42.98
2019-04-14T15:42:50.095Z,48.50
2019-04-14T15:45:19.504Z,49.67
2019-04-14T15:47:48.846Z,64.03
2019-04-14T15:50:18.229Z,82.65
2019-04-14T15:52:47.583Z,78.67
2019-04-14T15:55:18.441Z,47.48
2019-04-14T15:57:52.553Z,34.27
2019-04-14T16:00:27.751Z,30.35
2019-04-14T16:03:04.391Z,30.62
2019-04-14T16:05:35.403Z,40.23
2019-04-14T16:08:08.841Z,36.58
2019-04-14T16:10:45.701Z,35.95
2019-04-14T16:13:19.271Z,33.33
2019-04-14T16:15:53.190Z,37.73
2019-04-14T16:18:37.965Z,28.47
2019-04-14T16:21:07.338Z,27.87
2019-04-14T16:23:49.732Z,30.15
2019-04-14T16:26:10.251Z,30.32
2019-04-14T16:28:41.251Z,50.07
2019-04-14T16:31:14.943Z,41.83
2019-04-14T16:34:02.008Z,43.38
2019-04-14T16:36:31.424Z,46.68
2019-04-14T16:39:00.786Z,61.08
2019-04-14T16:41:30.145Z,41.35
2019-04-14T16:43:59.515Z,44.48
2019-04-14T16:46:29.068Z,37.60
2019-04-14T16:48:58.558Z,32.93
2019-04-14T16:51:35.585Z,38.05
2019-04-14T16:54:10.141Z,25.82
2019-04-14T16:56:50.124Z,27.17
2019-04-14T16:59:19.461Z,28.73
2019-04-14T17:01:48.925Z,25.88
2019-04-14T17:04:18.266Z,25.12
2019-04-14T17:06:47.644Z,31.10
2019-04-14T17:09:17.123Z,28.02
2019-04-14T17:11:46.485Z,29.75
2019-04-14T17:14:17.502Z,33.42
2019-04-14T17:16:52.265Z,25.60
2019-04-14T17:19:25.869Z,26.00
2019-04-14T17:21:56.861Z,26.20
2019-04-14T17:24:33.282Z,22.67
2019-04-14T17:27:06.951Z,27.25
2019-04-14T17:29:43.976Z,26.00
2019-04-14T17:32:31.481Z,33.98
2019-04-14T17:35:02.477Z,29.05
2019-04-14T17:37:40.544Z,31.73
2019-04-14T17:40:27.079Z,25.65
2019-04-14T17:42:58.042Z,27.58
2019-04-14T17:45:35.127Z,25.82
2019-04-14T17:48:06.260Z,27.30
2019-04-14T17:50:40.789Z,26.82
2019-04-14T17:53:09.950Z,28.00
2019-04-14T17:55:50.058Z,26.37
2019-04-14T17:58:26.441Z,29.67
2019-04-14T18:01:13.258Z,29.63
2019-04-14T18:03:44.236Z,33.78
2019-04-14T18:06:16.534Z,28.55
2019-04-14T18:09:03.344Z,26.97
2019-04-14T18:11:34.356Z,27.85
2019-04-14T18:14:11.147Z,29.63
2019-04-14T18:16:40.384Z,26.07
2019-04-14T18:19:14.308Z,27.55
2019-04-14T18:21:44.344Z,28.30
2019-04-14T18:24:14.000Z,29.75
2019-04-14T18:26:43.349Z,25.80
2019-04-14T18:29:26.395Z,31.15
2019-04-14T18:32:15.968Z,31.93
2019-04-14T18:34:50.947Z,31.30
2019-04-14T18:37:23.046Z,25.62
2019-04-14T18:40:05.805Z,29.67
2019-04-14T18:42:52.678Z,29.02
2019-04-14T18:45:21.806Z,28.38
2019-04-14T18:47:52.808Z,30.72
2019-04-14T18:50:23.838Z,30.02
2019-04-14T18:53:06.724Z,23.15
2019-04-14T18:55:43.469Z,26.97
2019-04-14T18:58:15.290Z,26.20
2019-04-14T19:00:49.008Z,26.65
2019-04-14T19:03:18.338Z,29.10
2019-04-14T19:05:47.685Z,28.50
2019-04-14T19:08:17.016Z,32.55
2019-04-14T19:11:00.145Z,28.77
2019-04-14T19:13:31.129Z,24.23
2019-04-14T19:16:20.174Z,27.73
2019-04-14T19:19:00.173Z,25.23
2019-04-14T19:21:31.437Z,29.60
2019-04-14T19:24:00.780Z,29.40
2019-04-14T19:26:30.158Z,27.02
2019-04-14T19:28:59.561Z,30.12
2019-04-14T19:31:28.912Z,28.32
2019-04-14T19:33:58.273Z,25.70
2019-04-14T19:36:27.599Z,25.80
2019-04-14T19:38:56.968Z,30.10
2019-04-14T19:41:26.318Z,30.37
2019-04-14T19:43:55.741Z,26.05
2019-04-14T19:46:25.171Z,28.38
2019-04-14T19:48:54.512Z,27.65
2019-04-14T19:51:23.862Z,25.80
2019-04-14T19:53:53.229Z,26.02
2019-04-14T19:56:22.587Z,26.93
2019-04-14T19:58:51.914Z,24.92
2019-04-14T20:01:22.884Z,24.12
2019-04-14T20:03:52.235Z,27.27
2019-04-14T20:06:21.569Z,28.32
2019-04-14T20:08:50.928Z,28.32
2019-04-14T20:11:20.364Z,25.10
2019-04-14T20:13:49.760Z,27.55
2019-04-14T20:16:20.741Z,26.90
2019-04-14T20:18:51.719Z,25.12
2019-04-14T20:21:37.659Z,37.58
2019-04-14T20:24:11.312Z,42.27
2019-04-14T20:26:44.841Z,46.28
2019-04-14T20:29:18.504Z,40.75
2019-04-14T20:31:49.497Z,40.15
2019-04-14T20:34:18.830Z,38.20
2019-04-14T20:36:48.185Z,34.30
2019-04-14T20:39:19.165Z,37.23
2019-04-14T20:41:48.524Z,33.55
2019-04-14T20:44:18.200Z,37.00
2019-04-14T20:46:47.558Z,41.08
2019-04-14T20:49:16.977Z,55.38
2019-04-14T20:51:46.360Z,71.33
2019-04-14T20:54:15.680Z,70.08
2019-04-14T20:56:45.010Z,72.25
2019-04-14T20:59:14.369Z,71.87
2019-04-14T21:01:45.345Z,58.48
2019-04-14T21:04:18.741Z,56.75
2019-04-14T21:06:49.730Z,47.25
2019-04-14T21:09:26.449Z,43.80
2019-04-14T21:11:57.438Z,42.05
2019-04-14T21:14:28.403Z,37.30
2019-04-14T21:17:08.448Z,36.45
2019-04-14T21:19:55.238Z,35.63
2019-04-14T21:22:37.765Z,39.05
2019-04-14T21:28:07.082Z,38.42
2019-04-14T21:30:53.090Z,36.65
2019-04-14T21:33:28.188Z,34.20
2019-04-14T21:35:59.406Z,44.15
2019-04-14T21:38:42.181Z,41.28
2019-04-14T21:41:18.843Z,39.65
2019-04-14T21:43:48.201Z,35.17
2019-04-14T21:46:17.540Z,34.60
2019-04-14T21:48:46.927Z,33.30
2019-04-14T21:51:16.257Z,30.30
2019-04-14T21:53:46.665Z,27.75
2019-04-14T21:56:16.030Z,28.00
2019-04-14T21:58:47.016Z,26.57
2019-04-14T22:01:38.838Z,25.05
2019-04-14T22:04:07.937Z,23.38
2019-04-14T22:06:41.924Z,26.93
2019-04-14T22:09:15.736Z,28.62
2019-04-14T22:11:45.100Z,27.42
2019-04-14T22:14:14.520Z,32.35
2019-04-14T22:16:43.877Z,26.48
2019-04-14T22:19:13.215Z,21.55
2019-04-14T22:21:42.738Z,30.48
2019-04-14T22:24:12.181Z,28.42
2019-04-14T22:26:41.601Z,25.82
2019-04-14T22:29:10.950Z,26.75
2019-04-14T22:31:40.296Z,26.48
2019-04-14T22:34:09.662Z,24.05
2019-04-14T22:36:38.996Z,24.35
2019-04-14T22:39:10.003Z,23.22
2019-04-14T22:41:39.343Z,25.02
2019-04-14T22:44:08.674Z,28.32
2019-04-14T22:46:38.040Z,30.68
2019-04-14T22:49:07.375Z,25.12
2019-04-14T22:51:36.741Z,28.20
2019-04-14T22:54:06.198Z,39.95
2019-04-14T22:56:39.397Z,42.03
2019-04-14T22:59:06.606Z,35.23
2019-04-14T23:01:37.593Z,33.18
2019-04-14T23:04:09.811Z,31.93
2019-04-14T23:06:43.492Z,30.55
2019-04-14T23:09:23.735Z,24.65
2019-04-14T23:11:58.727Z,21.30
2019-04-14T23:14:38.335Z,18.60
2019-04-14T23:17:25.340Z,19.85
2019-04-14T23:20:12.217Z,23.38
2019-04-14T23:22:56.538Z,23.45
2019-04-14T23:25:25.962Z,22.37
2019-04-14T23:27:55.319Z,22.20
2019-04-14T23:30:24.688Z,26.85
2019-04-14T23:32:54.040Z,21.65
2019-04-14T23:35:23.371Z,20.65
2019-04-14T23:37:52.793Z,25.55
2019-04-14T23:40:22.207Z,25.68
2019-04-14T23:42:51.578Z,27.13
2019-04-14T23:45:20.928Z,27.45
2019-04-14T23:47:50.302Z,26.50
2019-04-14T23:50:19.642Z,30.80
2019-04-14T23:52:49.018Z,20.90
2019-04-14T23:55:18.372Z,28.67
2019-04-14T23:57:47.939Z,25.90
